Flinterbirka — PHFQ — position and weather

sailwx.info

Track history (hours):
 
Tides and Currents Weather Stations Pressure Air Temp Water Temp Dewpoint Dewpoint Depression Visibility Wind Speed Wind Dir Waves Ship Positions

Flinterbirka

Last reported at 2016-Feb-10 21:18 UTC. Time now 2016-Feb-12 22:23 UTC.
Position N 58°36' E 012°40'.

Length 83 m; draft 5.3 m.

Type: Cargo ship. MMSI: 246525000.

Date/timePositionNaut miles runAvg speedWind from/ knotsBaromVisibWave heightAir tempDewpointWater temp
2016-Feb-10 21:18N 58°36' E 012°40'710.1
2016-Feb-10 20:33N 58°30' E 012°32'9 9.0
2016-Feb-10 19:33N 58°24' E 012°19'3 3.3
2016-Feb-10 18:33N 58°20' E 012°21'4 4.1
2016-Feb-10 17:33N 58°17' E 012°17'1 1.4
2016-Feb-10 16:33N 58°16' E 012°15'1 1.2
2016-Feb-10 15:33N 58°15' E 012°14'7 7.2
2016-Feb-10 14:32N 58°09' E 012°08'3 2.7
2016-Feb-10 13:32N 58°06' E 012°09'6 6.4
2016-Feb-10 12:33N 57°60' E 012°08'7 7.3
2016-Feb-10 11:33N 57°53' E 012°02'6 6.0
2016-Feb-10 10:33N 57°47' E 012°00'5 4.8
2016-Feb-10 09:33N 57°43' E 011°58'7 6.9
2016-Feb-10 08:33N 57°40' E 011°46'6 6.4
2016-Feb-10 07:33N 57°37' E 011°35'7 6.5
2016-Feb-10 06:33N 57°41' E 011°25'10 9.9
2016-Feb-10 05:33N 57°48' E 011°11'10 9.9
2016-Feb-10 04:33N 57°54' E 010°57'1010.0
2016-Feb-10 03:33N 57°56' E 010°39'28210.1
2016-Feb-08 23:31N 54°17' E 005°19'10 9.9
2016-Feb-08 22:32N 54°09' E 005°10'9 9.8
2016-Feb-08 21:33N 53°60' E 005°06'1010.0
2016-Feb-08 20:32N 53°50' E 005°01'1010.3
2016-Feb-08 19:32N 53°40' E 004°54'4410.7
2016-Feb-08 15:29N 53°01' E 004°23'110 9.6
2016-Feb-08 04:06N 51°37' E 002°27'610.8
2016-Feb-08 03:32N 51°32' E 002°22'1111.4
2016-Feb-08 02:33N 51°23' E 002°12'1211.8
2016-Feb-08 01:33N 51°13' E 002°01'1313.0
2016-Feb-08 00:33N 51°05' E 001°45'111 9.9
2016-Feb-07 13:15N 49°42' W 000°12'6 8.9
2016-Feb-07 12:33N 49°37' W 000°07'9 9.4
2016-Feb-07 11:33N 49°30' E 000°03'5 5.3
2016-Feb-07 10:33N 49°29' E 000°11'1 0.8
2016-Feb-07 09:32N 49°29' E 000°12'0 0.0
2016-Feb-07 08:31N 49°29' E 000°12'0 0.0
2016-Feb-07 07:33N 49°29' E 000°12'0 0.0
2016-Feb-07 06:33N 49°29' E 000°12'0 0.0
2016-Feb-07 05:33N 49°29' E 000°12'0 0.0
2016-Feb-07 04:33N 49°29' E 000°12'0 0.0
2016-Feb-07 03:33N 49°29' E 000°12'0 0.0
2016-Feb-07 02:33N 49°29' E 000°12'0 0.0
2016-Feb-07 01:33N 49°29' E 000°12'0 0.0
2016-Feb-07 00:33N 49°29' E 000°12'0 0.0
2016-Feb-06 23:33N 49°29' E 000°12'0 0.0
2016-Feb-06 22:33N 49°29' E 000°12'0 0.0
2016-Feb-06 21:33N 49°29' E 000°12'0 0.0
2016-Feb-06 20:33N 49°29' E 000°12'0 0.0
2016-Feb-06 19:33N 49°29' E 000°12'0 0.0
2016-Feb-06 18:33N 49°29' E 000°12'0 0.0
2016-Feb-06 17:33N 49°29' E 000°12'0 0.0
2016-Feb-06 16:33N 49°29' E 000°12'0 0.0
2016-Feb-06 15:33N 49°29' E 000°12'0 0.0
2016-Feb-06 14:33N 49°29' E 000°12'0 0.0
2016-Feb-06 13:33N 49°29' E 000°12'0 0.0
2016-Feb-06 12:33N 49°29' E 000°12'0 0.0
2016-Feb-06 11:33N 49°29' E 000°12'0 0.0
2016-Feb-06 10:33N 49°29' E 000°12'0 0.0
2016-Feb-06 09:33N 49°29' E 000°12'0 0.0
2016-Feb-06 08:33N 49°29' E 000°12'0 0.0
2016-Feb-06 07:33N 49°29' E 000°12'0 0.0
2016-Feb-06 06:33N 49°29' E 000°12'0 0.0
2016-Feb-06 05:33N 49°29' E 000°12'0 0.0
2016-Feb-06 04:33N 49°29' E 000°12'0 0.0
2016-Feb-06 03:33N 49°29' E 000°12'0 0.0
2016-Feb-06 02:33N 49°29' E 000°12'0 0.0
2016-Feb-06 01:33N 49°29' E 000°12'0 0.0
2016-Feb-06 00:33N 49°29' E 000°12'0 0.0
2016-Feb-05 23:33N 49°29' E 000°12'0 0.0
2016-Feb-05 22:33N 49°29' E 000°12'0 0.0
2016-Feb-05 21:33N 49°29' E 000°12'0 0.0
2016-Feb-05 20:33N 49°29' E 000°12'0 0.0
2016-Feb-05 19:33N 49°29' E 000°12'0 0.0
2016-Feb-05 18:33N 49°29' E 000°12'1 1.1
2016-Feb-05 17:33N 49°29' E 000°10'6 5.7
2016-Feb-05 16:33N 49°30' E 000°02'7 7.0
2016-Feb-05 15:33N 49°32' W 000°08'4 4.2
2016-Feb-05 14:33N 49°34' W 000°15'4 4.1
2016-Feb-05 13:33N 49°35' W 000°21'195 6.9
2016-Feb-04 09:07N 48°42' W 005°07'82 4.7
2016-Feb-03 15:33N 47°36' W 003°54'7 6.7
2016-Feb-03 14:33N 47°39' W 003°45'8 8.0
2016-Feb-03 13:33N 47°41' W 003°33'7 7.2
2016-Feb-03 12:33N 47°42' W 003°23'2 2.4
2016-Feb-03 11:32N 47°44' W 003°21'0 0.0
2016-Feb-03 10:32N 47°44' W 003°21'0 0.0
2016-Feb-03 09:31N 47°44' W 003°21'0 0.0
2016-Feb-03 08:31N 47°44' W 003°21'0 0.0
2016-Feb-03 07:33N 47°44' W 003°21'0 0.0
2016-Feb-03 06:33N 47°44' W 003°21'0 0.0
2016-Feb-03 05:33N 47°44' W 003°21'0 0.0
2016-Feb-03 04:32N 47°44' W 003°21'0 0.0
2016-Feb-03 03:32N 47°44' W 003°21'0 0.0
2016-Feb-03 02:31N 47°44' W 003°21'0 0.0
2016-Feb-03 01:31N 47°44' W 003°21'0 0.0
2016-Feb-03 00:33N 47°44' W 003°21'0 0.0
2016-Feb-02 23:33N 47°44' W 003°21'0 0.0
2016-Feb-02 22:33N 47°44' W 003°21'0 0.0
2016-Feb-02 21:32N 47°44' W 003°21'0 0.0
2016-Feb-02 20:32N 47°44' W 003°21'0 0.0
2016-Feb-02 19:31N 47°44' W 003°21'0 0.0
2016-Feb-02 18:28N 47°44' W 003°21'0 0.0
2016-Feb-02 17:33N 47°44' W 003°21'0 0.0
2016-Feb-02 16:33N 47°44' W 003°21'0 0.0
2016-Feb-02 15:33N 47°44' W 003°21'0 0.0
2016-Feb-02 14:32N 47°44' W 003°21'0 0.0
2016-Feb-02 13:32N 47°44' W 003°21'0 0.0
2016-Feb-02 12:31N 47°44' W 003°21'0 0.0
2016-Feb-02 11:31N 47°44' W 003°21'0 0.0
2016-Feb-02 10:33N 47°44' W 003°21'0 0.0
2016-Feb-02 09:33N 47°44' W 003°21'0 0.0
2016-Feb-02 08:32N 47°44' W 003°21'0 0.0
2016-Feb-02 07:32N 47°44' W 003°21'0 0.0
2016-Feb-02 06:32N 47°44' W 003°21'0 0.0
2016-Feb-02 05:31N 47°44' W 003°21'0 0.0
2016-Feb-02 04:31N 47°44' W 003°21'0 0.0
2016-Feb-02 03:33N 47°44' W 003°21'0 0.0
2016-Feb-02 02:33N 47°44' W 003°21'0 0.0
2016-Feb-02 01:32N 47°44' W 003°21'0 0.0
2016-Feb-02 00:32N 47°44' W 003°21'0 0.0
2016-Feb-01 23:32N 47°44' W 003°21'0 0.0
2016-Feb-01 22:31N 47°44' W 003°21'0 0.1
2016-Feb-01 21:31N 47°44' W 003°21'4 4.3
2016-Feb-01 20:29N 47°40' W 003°25'0 0.0
2016-Feb-01 19:31N 47°40' W 003°25'0 0.0
2016-Feb-01 18:31N 47°40' W 003°25'0 0.0
2016-Feb-01 17:33N 47°40' W 003°25'0 0.0
2016-Feb-01 16:30N 47°40' W 003°25'0 0.0
2016-Feb-01 15:32N 47°40' W 003°25'0 0.0
2016-Feb-01 14:32N 47°40' W 003°25'0 0.0
2016-Feb-01 13:32N 47°40' W 003°25'0 0.0
2016-Feb-01 12:31N 47°40' W 003°25'0 0.0
2016-Feb-01 11:31N 47°40' W 003°25'0 0.0
2016-Feb-01 10:33N 47°40' W 003°25'0 0.0
2016-Feb-01 09:33N 47°40' W 003°25'0 0.0
2016-Feb-01 08:32N 47°40' W 003°25'0 0.0
2016-Feb-01 07:32N 47°40' W 003°25'0 0.0
2016-Feb-01 06:32N 47°40' W 003°25'0 0.0
2016-Feb-01 05:31N 47°40' W 003°25'0 0.0
2016-Feb-01 04:31N 47°40' W 003°25'0 0.0
2016-Feb-01 03:33N 47°40' W 003°25'0 0.0
2016-Feb-01 02:33N 47°40' W 003°25'0 0.0
2016-Feb-01 01:32N 47°40' W 003°25'0 0.0
2016-Feb-01 00:32N 47°40' W 003°25'0 0.0
2016-Jan-31 23:31N 47°40' W 003°25'0 0.0
2016-Jan-31 22:31N 47°40' W 003°25'0 0.0
2016-Jan-31 21:31N 47°40' W 003°25'  
Track history (hours):
 
Tides and Currents Weather Stations Pressure Air Temp Water Temp Dewpoint Dewpoint Depression Visibility Wind Speed Wind Dir Waves Ship Positions

Flinterbirka

Last reported at 2016-Feb-10 21:18 UTC. Time now 2016-Feb-12 22:23 UTC.
Position N 58°36' E 012°40'.

Length 83 m; draft 5.3 m.

Type: Cargo ship. MMSI: 246525000.

Date/timePositionNaut miles runAvg speedWind from/ knotsBaromVisibWave heightAir tempDewpointWater temp
2016-Feb-10 21:18N 58°36' E 012°40'710.1
2016-Feb-10 20:33N 58°30' E 012°32'9 9.0
2016-Feb-10 19:33N 58°24' E 012°19'3 3.3
2016-Feb-10 18:33N 58°20' E 012°21'4 4.1
2016-Feb-10 17:33N 58°17' E 012°17'1 1.4
2016-Feb-10 16:33N 58°16' E 012°15'1 1.2
2016-Feb-10 15:33N 58°15' E 012°14'7 7.2
2016-Feb-10 14:32N 58°09' E 012°08'3 2.7
2016-Feb-10 13:32N 58°06' E 012°09'6 6.4
2016-Feb-10 12:33N 57°60' E 012°08'7 7.3
2016-Feb-10 11:33N 57°53' E 012°02'6 6.0
2016-Feb-10 10:33N 57°47' E 012°00'5 4.8
2016-Feb-10 09:33N 57°43' E 011°58'7 6.9
2016-Feb-10 08:33N 57°40' E 011°46'6 6.4
2016-Feb-10 07:33N 57°37' E 011°35'7 6.5
2016-Feb-10 06:33N 57°41' E 011°25'10 9.9
2016-Feb-10 05:33N 57°48' E 011°11'10 9.9
2016-Feb-10 04:33N 57°54' E 010°57'1010.0
2016-Feb-10 03:33N 57°56' E 010°39'28210.1
2016-Feb-08 23:31N 54°17' E 005°19'10 9.9
2016-Feb-08 22:32N 54°09' E 005°10'9 9.8
2016-Feb-08 21:33N 53°60' E 005°06'1010.0
2016-Feb-08 20:32N 53°50' E 005°01'1010.3
2016-Feb-08 19:32N 53°40' E 004°54'4410.7
2016-Feb-08 15:29N 53°01' E 004°23'110 9.6
2016-Feb-08 04:06N 51°37' E 002°27'610.8
2016-Feb-08 03:32N 51°32' E 002°22'1111.4
2016-Feb-08 02:33N 51°23' E 002°12'1211.8
2016-Feb-08 01:33N 51°13' E 002°01'1313.0
2016-Feb-08 00:33N 51°05' E 001°45'111 9.9
2016-Feb-07 13:15N 49°42' W 000°12'6 8.9
2016-Feb-07 12:33N 49°37' W 000°07'9 9.4
2016-Feb-07 11:33N 49°30' E 000°03'5 5.3
2016-Feb-07 10:33N 49°29' E 000°11'1 0.8
2016-Feb-07 09:32N 49°29' E 000°12'0 0.0
2016-Feb-07 08:31N 49°29' E 000°12'0 0.0
2016-Feb-07 07:33N 49°29' E 000°12'0 0.0
2016-Feb-07 06:33N 49°29' E 000°12'0 0.0
2016-Feb-07 05:33N 49°29' E 000°12'0 0.0
2016-Feb-07 04:33N 49°29' E 000°12'0 0.0
2016-Feb-07 03:33N 49°29' E 000°12'0 0.0
2016-Feb-07 02:33N 49°29' E 000°12'0 0.0
2016-Feb-07 01:33N 49°29' E 000°12'0 0.0
2016-Feb-07 00:33N 49°29' E 000°12'0 0.0
2016-Feb-06 23:33N 49°29' E 000°12'0 0.0
2016-Feb-06 22:33N 49°29' E 000°12'0 0.0
2016-Feb-06 21:33N 49°29' E 000°12'0 0.0
2016-Feb-06 20:33N 49°29' E 000°12'0 0.0
2016-Feb-06 19:33N 49°29' E 000°12'0 0.0
2016-Feb-06 18:33N 49°29' E 000°12'0 0.0
2016-Feb-06 17:33N 49°29' E 000°12'0 0.0
2016-Feb-06 16:33N 49°29' E 000°12'0 0.0
2016-Feb-06 15:33N 49°29' E 000°12'0 0.0
2016-Feb-06 14:33N 49°29' E 000°12'0 0.0
2016-Feb-06 13:33N 49°29' E 000°12'0 0.0
2016-Feb-06 12:33N 49°29' E 000°12'0 0.0
2016-Feb-06 11:33N 49°29' E 000°12'0 0.0
2016-Feb-06 10:33N 49°29' E 000°12'0 0.0
2016-Feb-06 09:33N 49°29' E 000°12'0 0.0
2016-Feb-06 08:33N 49°29' E 000°12'0 0.0
2016-Feb-06 07:33N 49°29' E 000°12'0 0.0
2016-Feb-06 06:33N 49°29' E 000°12'0 0.0
2016-Feb-06 05:33N 49°29' E 000°12'0 0.0
2016-Feb-06 04:33N 49°29' E 000°12'0 0.0
2016-Feb-06 03:33N 49°29' E 000°12'0 0.0
2016-Feb-06 02:33N 49°29' E 000°12'0 0.0
2016-Feb-06 01:33N 49°29' E 000°12'0 0.0
2016-Feb-06 00:33N 49°29' E 000°12'0 0.0
2016-Feb-05 23:33N 49°29' E 000°12'0 0.0
2016-Feb-05 22:33N 49°29' E 000°12'0 0.0
2016-Feb-05 21:33N 49°29' E 000°12'0 0.0
2016-Feb-05 20:33N 49°29' E 000°12'0 0.0
2016-Feb-05 19:33N 49°29' E 000°12'0 0.0
2016-Feb-05 18:33N 49°29' E 000°12'1 1.1
2016-Feb-05 17:33N 49°29' E 000°10'6 5.7
2016-Feb-05 16:33N 49°30' E 000°02'7 7.0
2016-Feb-05 15:33N 49°32' W 000°08'4 4.2
2016-Feb-05 14:33N 49°34' W 000°15'4 4.1
2016-Feb-05 13:33N 49°35' W 000°21'195 6.9
2016-Feb-04 09:07N 48°42' W 005°07'82 4.7
2016-Feb-03 15:33N 47°36' W 003°54'7 6.7
2016-Feb-03 14:33N 47°39' W 003°45'8 8.0
2016-Feb-03 13:33N 47°41' W 003°33'7 7.2
2016-Feb-03 12:33N 47°42' W 003°23'2 2.4
2016-Feb-03 11:32N 47°44' W 003°21'0 0.0
2016-Feb-03 10:32N 47°44' W 003°21'0 0.0
2016-Feb-03 09:31N 47°44' W 003°21'0 0.0
2016-Feb-03 08:31N 47°44' W 003°21'0 0.0
2016-Feb-03 07:33N 47°44' W 003°21'0 0.0
2016-Feb-03 06:33N 47°44' W 003°21'0 0.0
2016-Feb-03 05:33N 47°44' W 003°21'0 0.0
2016-Feb-03 04:32N 47°44' W 003°21'0 0.0
2016-Feb-03 03:32N 47°44' W 003°21'0 0.0
2016-Feb-03 02:31N 47°44' W 003°21'0 0.0
2016-Feb-03 01:31N 47°44' W 003°21'0 0.0
2016-Feb-03 00:33N 47°44' W 003°21'0 0.0
2016-Feb-02 23:33N 47°44' W 003°21'0 0.0
2016-Feb-02 22:33N 47°44' W 003°21'0 0.0
2016-Feb-02 21:32N 47°44' W 003°21'0 0.0
2016-Feb-02 20:32N 47°44' W 003°21'0 0.0
2016-Feb-02 19:31N 47°44' W 003°21'0 0.0
2016-Feb-02 18:28N 47°44' W 003°21'0 0.0
2016-Feb-02 17:33N 47°44' W 003°21'0 0.0
2016-Feb-02 16:33N 47°44' W 003°21'0 0.0
2016-Feb-02 15:33N 47°44' W 003°21'0 0.0
2016-Feb-02 14:32N 47°44' W 003°21'0 0.0
2016-Feb-02 13:32N 47°44' W 003°21'0 0.0
2016-Feb-02 12:31N 47°44' W 003°21'0 0.0
2016-Feb-02 11:31N 47°44' W 003°21'0 0.0
2016-Feb-02 10:33N 47°44' W 003°21'0 0.0
2016-Feb-02 09:33N 47°44' W 003°21'0 0.0
2016-Feb-02 08:32N 47°44' W 003°21'0 0.0
2016-Feb-02 07:32N 47°44' W 003°21'0 0.0
2016-Feb-02 06:32N 47°44' W 003°21'0 0.0
2016-Feb-02 05:31N 47°44' W 003°21'0 0.0
2016-Feb-02 04:31N 47°44' W 003°21'0 0.0
2016-Feb-02 03:33N 47°44' W 003°21'0 0.0
2016-Feb-02 02:33N 47°44' W 003°21'0 0.0
2016-Feb-02 01:32N 47°44' W 003°21'0 0.0
2016-Feb-02 00:32N 47°44' W 003°21'0 0.0
2016-Feb-01 23:32N 47°44' W 003°21'0 0.0
2016-Feb-01 22:31N 47°44' W 003°21'0 0.1
2016-Feb-01 21:31N 47°44' W 003°21'4 4.3
2016-Feb-01 20:29N 47°40' W 003°25'0 0.0
2016-Feb-01 19:31N 47°40' W 003°25'0 0.0
2016-Feb-01 18:31N 47°40' W 003°25'0 0.0
2016-Feb-01 17:33N 47°40' W 003°25'0 0.0
2016-Feb-01 16:30N 47°40' W 003°25'0 0.0
2016-Feb-01 15:32N 47°40' W 003°25'0 0.0
2016-Feb-01 14:32N 47°40' W 003°25'0 0.0
2016-Feb-01 13:32N 47°40' W 003°25'0 0.0
2016-Feb-01 12:31N 47°40' W 003°25'0 0.0
2016-Feb-01 11:31N 47°40' W 003°25'0 0.0
2016-Feb-01 10:33N 47°40' W 003°25'0 0.0
2016-Feb-01 09:33N 47°40' W 003°25'0 0.0
2016-Feb-01 08:32N 47°40' W 003°25'0 0.0
2016-Feb-01 07:32N 47°40' W 003°25'0 0.0
2016-Feb-01 06:32N 47°40' W 003°25'0 0.0
2016-Feb-01 05:31N 47°40' W 003°25'0 0.0
2016-Feb-01 04:31N 47°40' W 003°25'0 0.0
2016-Feb-01 03:33N 47°40' W 003°25'0 0.0
2016-Feb-01 02:33N 47°40' W 003°25'0 0.0
2016-Feb-01 01:32N 47°40' W 003°25'0 0.0
2016-Feb-01 00:32N 47°40' W 003°25'0 0.0
2016-Jan-31 23:31N 47°40' W 003°25'0 0.0
2016-Jan-31 22:31N 47°40' W 003°25'0 0.0
2016-Jan-31 21:31N 47°40' W 003°25'  

Dump ship's entire track history